createdAt,value
2023-01-13T00:00:59.827Z,97035.66
2023-01-13T00:03:26.428Z,96911.63
2023-01-13T00:05:53.141Z,97032.91
2023-01-13T00:08:19.712Z,97025.34
2023-01-13T00:10:49.297Z,96876.78
2023-01-13T00:13:15.853Z,96950.88
2023-01-13T00:15:42.928Z,97010.47
2023-01-13T00:18:09.512Z,97020.44
2023-01-13T00:20:36.059Z,97028.66
2023-01-13T00:23:04.360Z,97017.66
2023-01-13T00:25:30.939Z,97020.78
2023-01-13T00:27:57.551Z,96869.09
2023-01-13T00:30:24.069Z,96994.44
2023-01-13T00:32:50.652Z,97011.44
2023-01-13T00:35:17.261Z,97010.31
2023-01-13T00:37:43.788Z,96988.53
2023-01-13T00:40:11.089Z,96813.66
2023-01-13T00:42:56.155Z,96766.72
2023-01-13T00:45:22.697Z,96991.13
2023-01-13T00:47:49.278Z,96982.63
2023-01-13T00:50:16.129Z,96857.31
2023-01-13T00:52:42.701Z,96819.53
2023-01-13T00:55:09.338Z,96982.31
2023-01-13T00:57:35.930Z,96887.25
2023-01-13T01:00:03.046Z,96950.38
2023-01-13T01:02:29.703Z,96968.56
2023-01-13T01:04:56.283Z,96969.22
2023-01-13T01:07:22.883Z,96966.75
2023-01-13T01:09:49.687Z,96843.56
2023-01-13T01:12:16.287Z,96959.88
2023-01-13T01:14:42.834Z,96868.44
2023-01-13T01:17:09.426Z,96584.22
2023-01-13T01:19:38.671Z,96964.28
2023-01-13T01:22:05.223Z,96844.53
2023-01-13T01:24:31.800Z,96956.59
2023-01-13T01:26:58.411Z,96960.03
2023-01-13T01:29:25.023Z,96958.72
2023-01-13T01:31:51.563Z,96967.25
2023-01-13T01:34:18.150Z,96926.00
2023-01-13T01:36:44.712Z,96944.34
2023-01-13T01:39:11.412Z,96955.16
2023-01-13T01:41:38.028Z,96850.13
2023-01-13T01:44:42.340Z,96955.13
2023-01-13T01:47:17.352Z,96929.94
2023-01-13T01:49:45.938Z,96960.19
2023-01-13T01:52:21.137Z,96922.25
2023-01-13T01:55:06.169Z,96945.00
2023-01-13T01:57:48.357Z,96941.72
2023-01-13T02:00:15.352Z,96810.69
2023-01-13T02:02:45.244Z,96934.03
2023-01-13T02:05:12.093Z,96922.06
2023-01-13T02:07:40.986Z,96924.53
2023-01-13T02:10:11.343Z,96930.13
2023-01-13T02:12:39.230Z,96925.34
2023-01-13T02:15:11.901Z,96929.44
2023-01-13T02:18:02.498Z,96889.72
2023-01-13T02:20:47.928Z,96924.22
2023-01-13T02:23:57.742Z,96920.78
2023-01-13T02:26:45.132Z,96920.78
2023-01-13T02:29:48.538Z,96924.88
2023-01-13T02:32:29.111Z,96915.22
2023-01-13T02:35:34.201Z,96906.69
2023-01-13T02:38:02.757Z,96792.72
2023-01-13T02:40:37.982Z,96915.06
2023-01-13T02:43:32.215Z,96908.97
2023-01-13T02:46:08.279Z,96891.66
2023-01-13T02:48:38.020Z,96878.88
2023-01-13T02:51:16.175Z,96894.44
2023-01-13T02:54:12.512Z,96906.69
2023-01-13T02:56:44.466Z,96655.44
2023-01-13T02:59:12.636Z,96872.34
2023-01-13T03:01:39.794Z,96910.81
2023-01-13T03:04:52.112Z,96903.91
2023-01-13T03:07:49.918Z,96890.84
2023-01-13T03:10:19.471Z,96908.69
2023-01-13T03:13:27.582Z,96671.97
2023-01-13T03:16:15.652Z,96901.31
2023-01-13T03:19:21.644Z,96910.44
2023-01-13T03:22:08.640Z,96879.84
2023-01-13T03:24:44.722Z,96897.53
2023-01-13T03:27:35.987Z,96881.97
2023-01-13T03:30:08.825Z,96884.28
2023-01-13T03:32:49.205Z,96891.47
2023-01-13T03:35:18.616Z,96882.00
2023-01-13T03:37:56.541Z,96888.84
2023-01-13T03:40:35.351Z,96883.63
2023-01-13T03:43:44.476Z,96832.44
2023-01-13T03:46:25.536Z,96885.25
2023-01-13T03:48:55.472Z,96812.34
2023-01-13T03:51:25.392Z,96879.88
2023-01-13T03:53:57.183Z,96875.75
2023-01-13T03:56:33.996Z,96724.88
2023-01-13T03:59:04.965Z,96868.41
2023-01-13T04:01:42.403Z,96870.19
2023-01-13T04:04:29.323Z,96784.06
2023-01-13T04:07:06.508Z,96878.03
2023-01-13T04:09:50.240Z,96762.31
2023-01-13T04:12:54.717Z,96871.00
2023-01-13T04:15:24.186Z,96724.75
2023-01-13T04:17:51.979Z,96883.44
2023-01-13T04:20:18.615Z,96834.06
2023-01-13T04:22:45.200Z,96754.63
2023-01-13T04:25:12.076Z,96870.84
2023-01-13T04:27:38.651Z,96866.44
2023-01-13T04:30:06.956Z,96874.28
2023-01-13T04:32:33.597Z,96864.78
2023-01-13T04:35:00.200Z,96854.31
2023-01-13T04:37:26.739Z,96867.09
2023-01-13T04:39:53.322Z,96866.91
2023-01-13T04:42:19.853Z,96862.66
2023-01-13T04:44:46.429Z,96860.03
2023-01-13T04:47:12.996Z,96730.94
2023-01-13T04:49:39.567Z,96854.16
2023-01-13T04:52:07.073Z,96865.78
2023-01-13T04:54:33.734Z,96677.53
2023-01-13T04:57:00.402Z,96863.66
2023-01-13T04:59:27.014Z,96703.16
2023-01-13T05:01:53.626Z,96866.09
2023-01-13T05:04:20.387Z,96872.81
2023-01-13T05:06:47.041Z,96523.53
2023-01-13T05:09:15.605Z,96699.72
2023-01-13T05:12:00.919Z,96713.44
2023-01-13T05:14:47.073Z,96806.09
2023-01-13T05:17:20.393Z,96871.31
2023-01-13T05:19:47.445Z,96871.13
2023-01-13T05:22:33.630Z,96874.75
2023-01-13T05:25:29.393Z,96874.59
2023-01-13T05:27:57.983Z,96869.81
2023-01-13T05:30:27.420Z,96867.38
2023-01-13T05:32:54.509Z,96847.09
2023-01-13T05:35:21.183Z,96867.22
2023-01-13T05:37:48.186Z,96819.97
2023-01-13T05:40:36.954Z,96867.53
2023-01-13T05:43:24.397Z,96870.97
2023-01-13T05:46:06.222Z,96809.84
2023-01-13T05:48:35.580Z,96869.16
2023-01-13T05:51:03.989Z,96865.56
2023-01-13T05:53:31.709Z,96871.28
2023-01-13T05:55:58.600Z,96645.81
2023-01-13T05:58:27.545Z,96866.69
2023-01-13T06:01:00.224Z,96866.53
2023-01-13T06:03:27.686Z,96857.19
2023-01-13T06:05:58.709Z,96769.28
2023-01-13T06:08:26.109Z,96707.06
2023-01-13T06:10:52.827Z,96870.09
2023-01-13T06:13:19.553Z,96772.56
2023-01-13T06:15:46.200Z,96730.56
2023-01-13T06:18:12.979Z,96795.91
2023-01-13T06:20:39.527Z,96868.75
2023-01-13T06:23:10.096Z,96868.44
2023-01-13T06:25:44.534Z,96865.66
2023-01-13T06:28:11.259Z,96811.72
2023-01-13T06:30:43.940Z,96854.00
2023-01-13T06:33:18.030Z,96855.97
2023-01-13T06:35:50.833Z,96841.28
2023-01-13T06:38:19.956Z,96796.84
2023-01-13T06:40:47.234Z,96885.28
2023-01-13T06:43:17.309Z,96862.50
2023-01-13T06:45:56.068Z,96858.09
2023-01-13T06:48:29.915Z,96839.31
2023-01-13T06:50:56.634Z,96751.91
2023-01-13T06:53:23.248Z,96765.94
2023-01-13T06:55:50.058Z,96854.66
2023-01-13T06:58:17.118Z,96853.81
2023-01-13T07:00:43.713Z,96858.94
2023-01-13T07:03:15.947Z,96859.53
2023-01-13T07:05:46.384Z,96859.06
2023-01-13T07:08:12.918Z,96666.81
2023-01-13T07:10:39.560Z,96723.97
2023-01-13T07:13:25.052Z,96860.38
2023-01-13T07:16:00.409Z,96745.22
2023-01-13T07:18:31.366Z,96864.63
2023-01-13T07:21:00.386Z,96862.66
2023-01-13T07:23:29.712Z,96733.91
2023-01-13T07:25:57.775Z,96857.25
2023-01-13T07:28:25.612Z,96809.72
2023-01-13T07:30:52.246Z,96855.59
2023-01-13T07:33:19.957Z,96822.94
2023-01-13T07:35:48.024Z,96755.31
2023-01-13T07:38:15.842Z,96852.19
2023-01-13T07:40:42.472Z,96824.06
2023-01-13T07:43:30.883Z,96809.34
2023-01-13T07:46:03.321Z,96863.59
2023-01-13T07:48:31.605Z,96863.44
2023-01-13T07:51:06.450Z,96858.03
2023-01-13T07:53:33.443Z,96858.50
2023-01-13T07:56:01.912Z,96855.53
2023-01-13T07:58:29.790Z,96857.16
2023-01-13T08:00:56.599Z,96736.75
2023-01-13T08:03:23.966Z,96849.81
2023-01-13T08:05:50.586Z,96767.13
2023-01-13T08:08:17.653Z,96867.56
2023-01-13T08:10:45.028Z,96869.66
2023-01-13T08:13:21.932Z,96708.66
2023-01-13T08:15:51.212Z,96870.91
2023-01-13T08:18:21.210Z,96838.53
2023-01-13T08:20:49.121Z,96817.31
2023-01-13T08:23:16.226Z,96869.03
2023-01-13T08:25:42.827Z,96868.06
2023-01-13T08:28:09.531Z,96862.00
2023-01-13T08:30:36.276Z,96823.31
2023-01-13T08:33:08.220Z,96869.88
2023-01-13T08:35:42.069Z,96682.09
2023-01-13T08:38:09.233Z,96776.47
2023-01-13T08:40:36.660Z,96867.25
2023-01-13T08:43:03.555Z,96735.25
2023-01-13T08:45:30.319Z,96815.28
2023-01-13T08:47:56.948Z,96864.19
2023-01-13T08:50:23.685Z,96869.31
2023-01-13T08:52:50.265Z,96788.41
2023-01-13T08:55:16.810Z,96860.72
2023-01-13T08:57:43.514Z,96863.63
2023-01-13T09:00:10.851Z,96827.59
2023-01-13T09:02:38.532Z,96869.81
2023-01-13T09:05:09.658Z,96866.34
2023-01-13T09:07:38.467Z,96868.66
2023-01-13T09:10:07.349Z,96856.78
2023-01-13T09:12:52.656Z,96859.69
2023-01-13T09:15:19.376Z,96715.22
2023-01-13T09:17:46.291Z,96815.91
2023-01-13T09:20:14.079Z,96864.63
2023-01-13T09:22:41.429Z,96847.31
2023-01-13T09:25:08.748Z,96860.78
2023-01-13T09:27:35.782Z,96780.06
2023-01-13T09:30:02.398Z,96861.06
2023-01-13T09:32:28.982Z,96850.63
2023-01-13T09:35:02.172Z,96773.41
2023-01-13T09:37:31.086Z,96850.75
2023-01-13T09:39:57.705Z,96866.44
2023-01-13T09:43:02.537Z,96850.84
2023-01-13T09:45:36.562Z,96848.28
2023-01-13T09:48:19.083Z,96841.72
2023-01-13T09:51:07.000Z,96835.63
2023-01-13T09:53:48.391Z,96669.00
2023-01-13T09:56:14.829Z,96836.50
2023-01-13T09:58:42.067Z,96836.75
2023-01-13T10:01:20.567Z,96830.78
2023-01-13T10:03:49.219Z,96897.84
2023-01-13T10:06:21.459Z,96810.38
2023-01-13T10:08:49.390Z,96833.69
2023-01-13T10:11:43.192Z,96823.16
2023-01-13T10:14:37.580Z,96841.63
2023-01-13T10:17:34.110Z,96834.94
2023-01-13T10:20:26.586Z,96834.59
2023-01-13T10:23:26.277Z,96845.84
2023-01-13T10:26:10.003Z,96630.06
2023-01-13T10:28:36.590Z,96856.50
2023-01-13T10:31:11.488Z,96839.25
2023-01-13T10:33:39.095Z,96859.44
2023-01-13T10:36:17.523Z,96856.81
2023-01-13T10:38:46.640Z,96869.88
2023-01-13T10:41:16.286Z,96871.88
2023-01-13T10:44:00.984Z,96850.34
2023-01-13T10:46:29.251Z,96696.09
2023-01-13T10:48:56.832Z,96884.19
2023-01-13T10:51:27.041Z,96876.50
2023-01-13T10:54:03.170Z,96839.25
2023-01-13T10:56:33.364Z,96880.09
2023-01-13T10:59:12.402Z,96823.13
2023-01-13T11:01:54.631Z,96884.94
2023-01-13T11:04:32.091Z,96885.19
2023-01-13T11:07:00.020Z,96826.69
2023-01-13T11:09:27.975Z,96899.72
2023-01-13T11:11:56.337Z,96798.06
2023-01-13T11:14:41.572Z,96932.72
2023-01-13T11:17:26.606Z,96934.00
2023-01-13T11:20:11.357Z,96944.81
2023-01-13T11:22:55.579Z,96918.22
2023-01-13T11:25:41.572Z,96939.00
2023-01-13T11:28:38.018Z,96936.56
2023-01-13T11:31:04.658Z,96936.91
2023-01-13T11:33:49.314Z,96942.63
2023-01-13T11:36:34.239Z,96921.03
2023-01-13T11:39:13.372Z,96923.97
2023-01-13T11:42:07.490Z,96925.63
2023-01-13T11:44:43.460Z,96912.66
2023-01-13T11:47:13.234Z,96786.97
2023-01-13T11:49:39.943Z,96905.44
2023-01-13T11:52:44.941Z,96770.22
2023-01-13T11:55:30.010Z,96910.78
2023-01-13T11:58:21.066Z,96914.66
2023-01-13T12:01:22.922Z,96857.84
2023-01-13T12:04:23.948Z,96894.34
2023-01-13T12:07:16.680Z,96907.44
2023-01-13T12:10:10.400Z,96905.63
2023-01-13T12:12:39.573Z,96915.91
2023-01-13T12:15:18.187Z,96937.06
2023-01-13T12:18:03.596Z,96890.31
2023-01-13T12:20:45.498Z,96891.47
2023-01-13T12:23:29.098Z,96888.19
2023-01-13T12:26:05.228Z,96892.63
2023-01-13T12:28:54.714Z,96906.75
2023-01-13T12:31:23.258Z,96783.22
2023-01-13T12:34:20.991Z,96927.19
2023-01-13T12:37:07.176Z,96892.28
2023-01-13T12:39:55.029Z,96935.28
2023-01-13T12:43:02.647Z,96936.31
2023-01-13T12:45:30.949Z,96939.44
2023-01-13T12:47:58.840Z,96945.34
2023-01-13T12:50:25.430Z,96939.41
2023-01-13T12:53:20.872Z,96929.88
2023-01-13T12:55:53.473Z,96792.06
2023-01-13T12:58:28.460Z,96884.72
2023-01-13T13:01:00.381Z,96929.63
2023-01-13T13:03:29.285Z,96929.75
2023-01-13T13:06:02.354Z,96849.81
2023-01-13T13:08:41.025Z,96931.34
2023-01-13T13:11:32.266Z,96930.75
2023-01-13T13:14:00.355Z,96906.38
2023-01-13T13:16:26.990Z,96931.91
2023-01-13T13:19:20.021Z,96924.84
2023-01-13T13:22:14.390Z,96920.25
2023-01-13T13:24:42.967Z,96879.84
2023-01-13T13:27:41.899Z,96903.38
2023-01-13T13:30:30.653Z,96909.59
2023-01-13T13:33:23.657Z,96896.00
2023-01-13T13:36:29.655Z,96910.09
2023-01-13T13:39:39.999Z,96812.47
2023-01-13T13:42:54.779Z,96944.94
2023-01-13T13:45:43.229Z,96952.16
2023-01-13T13:48:30.862Z,96950.56
2023-01-13T13:51:03.248Z,96924.25
2023-01-13T13:53:36.890Z,96951.44
2023-01-13T13:56:07.418Z,96960.28
2023-01-13T13:58:36.935Z,96950.97
2023-01-13T14:01:05.380Z,96948.97
2023-01-13T14:03:37.269Z,96965.53
2023-01-13T14:06:07.438Z,96937.97
2023-01-13T14:08:37.528Z,96948.88
2023-01-13T14:11:26.833Z,96844.38
2023-01-13T14:14:07.071Z,96932.03
2023-01-13T14:16:39.832Z,96955.94
2023-01-13T14:19:06.901Z,96966.47
2023-01-13T14:21:33.631Z,96931.13
2023-01-13T14:24:17.457Z,96956.66
2023-01-13T14:26:44.169Z,96978.44
2023-01-13T14:29:18.380Z,96945.09
2023-01-13T14:31:45.349Z,96996.19
2023-01-13T14:34:28.800Z,96992.88
2023-01-13T14:37:00.678Z,96964.22
2023-01-13T14:39:41.526Z,97000.59
2023-01-13T14:42:16.583Z,96987.66
2023-01-13T14:44:48.718Z,96991.59
2023-01-13T14:47:33.954Z,96998.63
2023-01-13T14:50:06.321Z,96833.91
2023-01-13T14:52:36.218Z,96841.09
2023-01-13T14:55:05.658Z,97008.47
2023-01-13T14:57:34.488Z,96983.94
2023-01-13T15:00:16.095Z,97017.50
2023-01-13T15:02:57.920Z,97018.63
2023-01-13T15:05:27.517Z,97025.88
2023-01-13T15:08:13.892Z,97035.06
2023-01-13T15:10:59.588Z,97041.59
2023-01-13T15:13:29.208Z,97044.06
2023-01-13T15:15:57.899Z,97050.75
2023-01-13T15:18:24.478Z,96890.13
2023-01-13T15:20:51.101Z,97052.22
2023-01-13T15:23:19.119Z,97064.03
2023-01-13T15:25:47.182Z,97028.94
2023-01-13T15:28:16.406Z,97077.25
2023-01-13T15:30:42.969Z,97080.97
2023-01-13T15:33:12.448Z,97088.00
2023-01-13T15:35:42.715Z,97104.34
2023-01-13T15:38:14.916Z,97067.13
2023-01-13T15:40:42.396Z,97047.44
2023-01-13T15:43:33.591Z,97106.75
2023-01-13T15:46:20.376Z,97115.59
2023-01-13T15:48:50.639Z,97104.31
2023-01-13T15:51:21.081Z,97115.22
2023-01-13T15:53:47.670Z,97121.91
2023-01-13T15:56:26.626Z,97042.31
2023-01-13T15:58:53.544Z,97133.13
2023-01-13T16:01:21.784Z,97129.91
2023-01-13T16:03:48.466Z,97135.81
2023-01-13T16:06:29.361Z,97153.13
2023-01-13T16:08:55.939Z,97155.75
2023-01-13T16:11:22.540Z,96925.50
2023-01-13T16:13:49.142Z,97163.44
2023-01-13T16:16:20.241Z,97167.03
2023-01-13T16:18:47.190Z,97057.28
2023-01-13T16:21:14.539Z,97170.13
2023-01-13T16:23:41.274Z,97167.78
2023-01-13T16:26:17.738Z,97164.97
2023-01-13T16:28:44.679Z,97169.44
2023-01-13T16:31:37.992Z,97176.06
2023-01-13T16:34:05.453Z,97184.38
2023-01-13T16:36:35.560Z,97165.56
2023-01-13T16:39:02.929Z,97190.13
2023-01-13T16:41:29.489Z,97143.13
2023-01-13T16:43:56.164Z,97182.59
2023-01-13T16:46:28.121Z,97211.28
2023-01-13T16:48:57.218Z,97204.34
2023-01-13T16:51:24.605Z,97089.22
2023-01-13T16:53:51.372Z,97218.28
2023-01-13T16:56:23.189Z,97221.81
2023-01-13T16:58:51.049Z,97202.09
2023-01-13T17:01:29.247Z,97188.78
2023-01-13T17:03:57.547Z,97204.78
2023-01-13T17:06:43.989Z,97248.13
2023-01-13T17:09:16.934Z,97308.03
2023-01-13T17:11:43.620Z,97065.16
2023-01-13T17:14:18.538Z,97241.13
2023-01-13T17:16:47.347Z,97243.88
2023-01-13T17:19:14.365Z,97063.31
2023-01-13T17:21:40.975Z,97255.81
2023-01-13T17:24:09.591Z,97148.38
2023-01-13T17:26:47.144Z,97256.47
2023-01-13T17:29:22.983Z,97260.59
2023-01-13T17:31:50.988Z,97275.00
2023-01-13T17:34:18.123Z,97272.25
2023-01-13T17:36:44.835Z,97279.13
2023-01-13T17:39:23.562Z,97216.53
2023-01-13T17:41:51.073Z,97287.38
2023-01-13T17:44:19.627Z,97253.94
2023-01-13T17:46:46.663Z,97223.00
2023-01-13T17:49:14.514Z,97280.19
2023-01-13T17:51:41.202Z,97248.53
2023-01-13T17:54:11.975Z,97283.19
2023-01-13T17:56:40.331Z,97292.00
2023-01-13T17:59:09.437Z,97268.38
2023-01-13T18:01:36.880Z,97293.91
2023-01-13T18:04:03.678Z,97296.38
2023-01-13T18:06:32.454Z,97295.44
2023-01-13T18:09:00.290Z,97187.50
2023-01-13T18:11:27.400Z,97328.41
2023-01-13T18:13:56.446Z,97305.03
2023-01-13T18:16:24.357Z,97231.03
2023-01-13T18:18:52.066Z,97161.66
2023-01-13T18:21:55.378Z,97137.19
2023-01-13T18:24:40.846Z,97299.66
2023-01-13T18:27:24.228Z,97279.09
2023-01-13T18:29:56.338Z,97246.78
2023-01-13T18:32:26.321Z,97308.38
2023-01-13T18:35:04.770Z,97277.00
2023-01-13T18:37:32.220Z,97126.09
2023-01-13T18:39:58.991Z,97323.34
2023-01-13T18:56:17.255Z,97323.34
2023-01-13T18:58:51.487Z,97315.72
2023-01-13T19:01:25.700Z,97127.59
2023-01-13T19:03:57.227Z,97241.81
2023-01-13T19:06:27.749Z,97320.03
2023-01-13T19:08:55.450Z,97319.06
2023-01-13T19:11:23.564Z,97322.97
2023-01-13T19:13:51.748Z,97320.91
2023-01-13T19:16:21.423Z,97295.00
2023-01-13T19:18:48.780Z,97328.09
2023-01-13T19:21:15.488Z,97190.94
2023-01-13T19:23:42.147Z,97328.94
2023-01-13T19:26:10.718Z,97331.00
2023-01-13T19:28:41.183Z,97237.94
2023-01-13T19:31:10.054Z,97217.09
2023-01-13T19:33:40.776Z,97320.31
2023-01-13T19:36:09.735Z,97339.53
2023-01-13T19:38:37.601Z,97338.03
2023-01-13T19:41:11.801Z,97338.03
2023-01-13T19:43:58.393Z,97330.06
2023-01-13T19:46:26.296Z,97353.13
2023-01-13T19:48:54.986Z,97356.56
2023-01-13T19:51:22.094Z,97362.31
2023-01-13T19:53:48.882Z,97335.63
2023-01-13T19:56:15.499Z,97373.16
2023-01-13T19:58:50.471Z,97368.22
2023-01-13T20:01:17.137Z,97233.84
2023-01-13T20:03:45.901Z,97325.88
2023-01-13T20:06:13.972Z,97376.03
2023-01-13T20:08:41.853Z,97270.00
2023-01-13T20:11:22.738Z,97319.91
2023-01-13T20:13:51.996Z,97386.16
2023-01-13T20:16:18.838Z,97392.75
2023-01-13T20:18:49.578Z,97389.00
2023-01-13T20:21:16.145Z,97396.69
2023-01-13T20:23:44.135Z,97260.50
2023-01-13T20:26:10.891Z,97399.72
2023-01-13T20:28:39.387Z,97415.38
2023-01-13T20:31:10.988Z,97404.22
2023-01-13T20:33:41.163Z,97398.84
2023-01-13T20:36:08.673Z,97408.34
2023-01-13T20:38:38.326Z,97461.25
2023-01-13T20:41:26.703Z,97424.69
2023-01-13T20:43:54.192Z,97354.44
2023-01-13T20:46:22.471Z,97425.06
2023-01-13T20:48:49.181Z,97429.50
2023-01-13T20:51:15.779Z,97427.56
2023-01-13T20:53:42.397Z,97426.00
2023-01-13T20:56:10.655Z,97430.56
2023-01-13T20:58:41.821Z,97284.38
2023-01-13T21:01:10.209Z,97447.94
2023-01-13T21:03:37.222Z,97321.91
2023-01-13T21:06:04.746Z,97436.84
2023-01-13T21:08:31.529Z,97377.22
2023-01-13T21:11:04.419Z,97236.28
2023-01-13T21:13:50.643Z,97449.50
2023-01-13T21:16:17.380Z,97436.72
2023-01-13T21:19:02.585Z,97302.44
2023-01-13T21:21:29.143Z,97449.91
2023-01-13T21:23:55.752Z,97440.81
2023-01-13T21:26:22.862Z,97352.88
2023-01-13T21:28:50.399Z,97446.75
2023-01-13T21:31:17.750Z,97454.72
2023-01-13T21:33:47.479Z,97145.47
2023-01-13T21:36:15.038Z,97466.81
2023-01-13T21:38:42.229Z,97456.06
2023-01-13T21:41:09.190Z,97423.16
2023-01-13T21:43:56.009Z,97456.91
2023-01-13T21:46:42.398Z,97457.59
2023-01-13T21:49:09.507Z,97422.84
2023-01-13T21:51:36.627Z,97455.50
2023-01-13T21:54:03.431Z,97307.13
2023-01-13T21:56:30.078Z,97469.25
2023-01-13T21:58:56.644Z,97477.09
2023-01-13T22:01:23.280Z,97483.28
2023-01-13T22:04:08.535Z,97533.50
2023-01-13T22:06:35.251Z,97484.78
2023-01-13T22:09:03.901Z,97394.22
2023-01-13T22:11:32.216Z,97488.09
2023-01-13T22:14:09.641Z,97498.41
2023-01-13T22:16:49.530Z,97448.38
2023-01-13T22:19:18.092Z,97506.53
2023-01-13T22:21:44.719Z,97399.47
2023-01-13T22:24:11.486Z,97368.59
2023-01-13T22:26:38.117Z,97506.41
2023-01-13T22:29:04.955Z,97391.94
2023-01-13T22:31:31.840Z,97513.41
2023-01-13T22:33:58.629Z,97494.31
2023-01-13T22:36:26.463Z,97511.47
2023-01-13T22:38:56.643Z,97513.41
2023-01-13T22:41:23.644Z,97506.53
2023-01-13T22:43:50.323Z,97508.31
2023-01-13T22:46:17.289Z,97517.13
2023-01-13T22:48:45.897Z,97517.28
2023-01-13T22:51:15.689Z,97523.31
2023-01-13T22:53:42.697Z,97444.69
2023-01-13T22:56:16.630Z,97406.78
2023-01-13T22:58:44.134Z,97431.25
2023-01-13T23:01:13.300Z,97516.63
2023-01-13T23:03:40.292Z,97501.53
2023-01-13T23:06:06.972Z,97523.31
2023-01-13T23:08:34.923Z,97524.31
2023-01-13T23:11:03.516Z,97534.75
2023-01-13T23:13:30.467Z,97540.00
2023-01-13T23:16:04.578Z,97534.75
2023-01-13T23:18:31.988Z,97539.44
2023-01-13T23:21:06.896Z,97547.44
2023-01-13T23:23:34.435Z,97543.00
2023-01-13T23:26:01.496Z,97544.28
2023-01-13T23:28:28.549Z,97430.84
2023-01-13T23:30:55.293Z,97563.53
2023-01-13T23:33:22.147Z,97565.34
2023-01-13T23:35:59.893Z,97573.59
2023-01-13T23:38:27.383Z,97567.53
2023-01-13T23:40:54.242Z,97563.13
2023-01-13T23:43:20.874Z,97569.63
2023-01-13T23:45:47.644Z,97567.97
2023-01-13T23:48:14.504Z,97548.88
2023-01-13T23:50:42.162Z,97565.78
2023-01-13T23:53:08.930Z,97552.56
2023-01-13T23:55:35.921Z,97454.78
2023-01-13T23:58:02.547Z,97579.66
